NCAR-RAP Real-Time Weather Data

Output produced by METARs form (10 April 2020  07:28 UTC)
found at http://weather.rap.ucar.edu/surface/
 
KBKW 100651Z AUTO 30009G17KT 6SM -SN BR SCT006 OVC038 01/M02 A2973 RMK AO2 SLP074 P0002 T00061017